Time;durP1;ratioP1;P1;durP2;ratioP2;P2;SDS_P1;SDS_P2;PMS_P1;PMS_P2;Temp;Humidity;BMP_temperature;BMP_pressure;BME280_temperature;BME280_humidity;BME280_pressure;Samples;Min_cycle;Max_cycle;Signal;HPM_P1;HPM_P2
2021/04/13 00:02:17;;;;;;;11.05;2.05;;;12.30;96.70;;;;;;4989172;28;20046;-76
2021/04/13 00:04:47;;;;;;;5.95;1.80;;;12.30;96.70;;;;;;4977479;28;20584;-76
2021/04/13 00:07:16;;;;;;;5.75;1.73;;;12.30;96.70;;;;;;4996103;28;20786;-77
2021/04/13 00:09:46;;;;;;;8.82;2.08;;;12.20;96.70;;;;;;4965781;28;20056;-76
2021/04/13 00:12:16;;;;;;;7.85;2.30;;;12.20;96.70;;;;;;4976178;28;20554;-76
2021/04/13 00:14:48;;;;;;;7.28;1.88;;;12.10;96.70;;;;;;4996257;28;20196;-76
2021/04/13 00:17:21;;;;;;;7.38;2.13;;;12.10;96.70;;;;;;4984336;28;20309;-76
2021/04/13 00:19:59;;;;;;;6.95;1.88;;;12.10;96.70;;;;;;5000406;28;20092;-76
2021/04/13 00:22:29;;;;;;;8.38;1.85;;;12.20;96.70;;;;;;4984385;28;20571;-76
2021/04/13 00:24:57;;;;;;;6.95;1.90;;;12.10;96.70;;;;;;4999446;28;20034;-76
2021/04/13 00:27:31;;;;;;;12.85;2.70;;;12.00;96.70;;;;;;4999954;28;20088;-76
2021/04/13 00:30:14;;;;;;;8.02;2.08;;;11.90;96.70;;;;;;4985988;28;20066;-77
2021/04/13 00:32:49;;;;;;;5.45;2.03;;;11.80;96.70;;;;;;4998225;28;20045;-78
2021/04/13 00:35:31;;;;;;;10.70;2.63;;;11.80;96.70;;;;;;4978733;28;20039;-78
2021/04/13 00:38:30;;;;;;;7.55;2.47;;;11.80;96.70;;;;;;4974285;28;20507;-78
2021/04/13 00:41:06;;;;;;;7.85;2.40;;;11.80;96.70;;;;;;5003092;28;20052;-78
2021/04/13 00:43:37;;;;;;;8.32;2.47;;;11.80;96.70;;;;;;4987634;28;20396;-78
2021/04/13 00:46:06;;;;;;;6.65;1.95;;;11.70;96.70;;;;;;5004823;28;20140;-78
2021/04/13 00:48:39;;;;;;;6.57;2.08;;;11.60;96.70;;;;;;4982717;28;20054;-77
2021/04/13 00:51:10;;;;;;;7.35;2.22;;;11.70;96.70;;;;;;4970872;28;20463;-77
2021/04/13 00:53:40;;;;;;;9.05;2.35;;;11.60;96.70;;;;;;4987266;28;20177;-77
2021/04/13 00:56:11;;;;;;;6.50;1.80;;;11.60;96.70;;;;;;4984583;28;20506;-78
2021/04/13 00:58:42;;;;;;;5.22;2.17;;;11.60;96.70;;;;;;4995028;28;20121;-77
2021/04/13 01:01:15;;;;;;;7.38;2.22;;;11.60;96.70;;;;;;4982346;28;20042;-78
2021/04/13 01:03:48;;;;;;;7.75;2.30;;;11.60;96.70;;;;;;4997601;28;20042;-77
2021/04/13 01:06:22;;;;;;;5.95;2.30;;;11.60;96.70;;;;;;4992860;28;20046;-77
2021/04/13 01:09:04;;;;;;;9.05;2.33;;;11.60;96.70;;;;;;4982785;28;20046;-77
2021/04/13 01:11:40;;;;;;;9.45;2.63;;;11.60;96.70;;;;;;4970092;28;20054;-78
2021/04/13 01:14:11;;;;;;;6.28;2.13;;;11.50;96.70;;;;;;4986161;28;20381;-78
2021/04/13 01:16:42;;;;;;;8.55;2.28;;;11.40;96.70;;;;;;4999259;28;20042;-77
2021/04/13 01:19:19;;;;;;;4.57;1.90;;;11.50;96.70;;;;;;4987180;28;20049;-78
2021/04/13 01:21:53;;;;;;;;;;;11.50;96.70;;;;;;4984525;28;20108;-77
2021/04/13 01:24:29;;;;;;;4.20;1.50;;;11.40;96.70;;;;;;4984684;28;20086;-77
2021/04/13 01:26:57;;;;;;;7.78;1.77;;;11.40;96.70;;;;;;4977326;28;20149;-77
2021/04/13 01:29:28;;;;;;;4.70;1.40;;;11.30;96.70;;;;;;4975612;28;20160;-77
2021/04/13 01:31:59;;;;;;;7.45;1.58;;;11.30;96.70;;;;;;4994333;28;20128;-78
2021/04/13 01:34:37;;;;;;;6.82;1.65;;;11.30;96.70;;;;;;4996998;28;20085;-78
2021/04/13 01:37:15;;;;;;;5.93;1.67;;;11.30;96.70;;;;;;4983217;28;20050;-78
2021/04/13 01:42:42;;;;;;;5.35;1.50;;;11.30;96.70;;;;;;4945289;28;20065;-78
2021/04/13 01:45:13;;;;;;;6.35;1.70;;;11.30;96.70;;;;;;5001590;28;20046;-78
2021/04/13 01:47:42;;;;;;;4.50;1.67;;;11.30;96.70;;;;;;4981585;28;20074;-78
2021/04/13 01:50:15;;;;;;;6.22;1.73;;;11.30;96.70;;;;;;4984226;28;20290;-77
2021/04/13 01:52:46;;;;;;;5.10;1.55;;;11.30;96.70;;;;;;4985552;28;20046;-77
2021/04/13 01:55:19;;;;;;;8.30;1.77;;;11.30;96.70;;;;;;4987243;28;20065;-77
2021/04/13 01:57:54;;;;;;;7.72;1.50;;;11.30;96.70;;;;;;4994437;28;20520;-77
2021/04/13 02:00:28;;;;;;;6.78;1.30;;;11.30;96.70;;;;;;4999698;28;20048;-77
2021/04/13 02:03:08;;;;;;;5.22;1.10;;;11.30;96.70;;;;;;4994138;28;20400;-77
2021/04/13 02:05:42;;;;;;;4.28;1.70;;;11.30;96.70;;;;;;4993433;28;20124;-77
2021/04/13 02:08:17;;;;;;;7.97;1.83;;;11.40;96.70;;;;;;5000186;28;20048;-77
2021/04/13 02:10:53;;;;;;;5.20;1.20;;;11.30;96.70;;;;;;5003779;28;20037;-77
2021/04/13 02:13:23;;;;;;;4.60;1.30;;;11.20;96.70;;;;;;4984548;28;20039;-77
2021/04/13 02:16:03;;;;;;;4.80;1.52;;;11.20;96.70;;;;;;4998321;28;20269;-77
2021/04/13 02:18:35;;;;;;;5.20;1.33;;;11.20;96.70;;;;;;4986846;28;20491;-77
2021/04/13 02:21:09;;;;;;;5.32;1.75;;;11.20;96.70;;;;;;4977677;28;20113;-77
2021/04/13 02:23:44;;;;;;;6.22;1.63;;;11.20;96.70;;;;;;4983703;28;20676;-77
2021/04/13 02:26:14;;;;;;;7.82;1.83;;;11.10;96.70;;;;;;4983688;28;20128;-77
2021/04/13 02:28:44;;;;;;;7.38;1.88;;;11.10;96.70;;;;;;4977657;28;20073;-77
2021/04/13 02:31:15;;;;;;;6.35;1.60;;;11.10;96.70;;;;;;4985619;28;20042;-77
2021/04/13 02:33:45;;;;;;;5.57;1.45;;;11.10;96.70;;;;;;4968637;28;20049;-77
2021/04/13 02:36:17;;;;;;;4.28;1.55;;;11.10;96.70;;;;;;5000981;28;20690;-77
2021/04/13 02:38:50;;;;;;;6.30;1.63;;;11.10;96.70;;;;;;4964541;28;20055;-77
2021/04/13 02:41:23;;;;;;;4.05;1.17;;;11.10;96.70;;;;;;4957174;28;20520;-77
2021/04/13 02:43:54;;;;;;;3.85;1.48;;;11.20;96.70;;;;;;4956782;28;20050;-77
2021/04/13 02:46:27;;;;;;;7.55;1.35;;;11.20;96.70;;;;;;4973970;28;20097;-77
2021/04/13 02:49:02;;;;;;;4.53;1.42;;;11.10;96.70;;;;;;4965437;28;20038;-77
2021/04/13 02:51:31;;;;;;;5.25;1.33;;;11.10;96.70;;;;;;4977581;28;20061;-77
2021/04/13 02:54:01;;;;;;;6.55;1.42;;;11.10;96.70;;;;;;4967153;28;20424;-78
2021/04/13 02:56:33;;;;;;;4.82;2.15;;;11.10;96.70;;;;;;4978386;28;20141;-78
2021/04/13 02:59:16;;;;;;;4.93;1.10;;;11.00;96.70;;;;;;4962093;28;20070;-77
2021/04/13 03:01:53;;;;;;;3.40;1.30;;;11.10;96.70;;;;;;4949363;28;20404;-78
2021/04/13 03:04:22;;;;;;;4.15;1.20;;;11.10;96.70;;;;;;4963335;28;20054;-78
2021/04/13 03:06:52;;;;;;;8.23;1.88;;;11.10;96.70;;;;;;4975352;28;20043;-78
2021/04/13 03:09:24;;;;;;;4.95;1.40;;;11.20;96.70;;;;;;4977826;28;20084;-78
2021/04/13 03:11:58;;;;;;;4.68;1.70;;;11.20;96.70;;;;;;4980511;28;20317;-78
2021/04/13 03:14:33;;;;;;;4.47;1.45;;;11.10;96.70;;;;;;4965659;28;20050;-78
2021/04/13 03:17:01;;;;;;;6.22;1.58;;;11.10;96.70;;;;;;4960600;28;20524;-78
2021/04/13 03:19:30;;;;;;;3.25;1.30;;;11.00;96.70;;;;;;4981505;28;20527;-78
2021/04/13 03:22:03;;;;;;;5.97;1.75;;;11.00;96.70;;;;;;4981584;28;20050;-78
2021/04/13 03:24:36;;;;;;;3.45;1.40;;;11.00;96.70;;;;;;4949746;28;20081;-78
2021/04/13 03:27:09;;;;;;;4.55;1.27;;;11.10;96.70;;;;;;4981732;28;20113;-78
2021/04/13 03:29:48;;;;;;;5.07;1.50;;;11.10;96.70;;;;;;4962630;28;20046;-78
2021/04/13 03:32:20;;;;;;;7.13;1.63;;;11.10;96.70;;;;;;4964249;28;20836;-78
2021/04/13 03:34:48;;;;;;;5.95;1.40;;;11.10;96.70;;;;;;4961095;28;20042;-79
2021/04/13 03:37:18;;;;;;;7.82;1.70;;;11.10;96.70;;;;;;4948209;28;20043;-78
2021/04/13 03:39:47;;;;;;;5.07;1.40;;;11.10;96.70;;;;;;4979005;28;20054;-78
2021/04/13 03:42:19;;;;;;;7.60;1.90;;;11.10;96.70;;;;;;4980414;28;20124;-78
2021/04/13 03:44:49;;;;;;;3.42;1.75;;;11.10;96.70;;;;;;4966832;28;20080;-78
2021/04/13 03:47:19;;;;;;;5.95;1.70;;;11.00;96.70;;;;;;4962268;28;20038;-78
2021/04/13 03:49:48;;;;;;;6.07;1.92;;;11.00;96.70;;;;;;4982696;28;20403;-76
2021/04/13 03:52:21;;;;;;;5.90;2.20;;;11.00;96.70;;;;;;4980417;28;20141;-76
2021/04/13 03:54:50;;;;;;;7.47;1.90;;;11.00;96.70;;;;;;4996140;28;20536;-76
2021/04/13 03:57:30;;;;;;;5.95;2.20;;;11.00;96.70;;;;;;5000083;28;20084;-76
2021/04/13 03:59:59;;;;;;;5.57;1.98;;;11.00;96.70;;;;;;4979473;28;20769;-76
2021/04/13 04:02:27;;;;;;;6.63;2.08;;;10.90;96.70;;;;;;4988918;28;20105;-76
2021/04/13 04:05:10;;;;;;;5.60;1.98;;;11.00;96.70;;;;;;4977672;28;20141;-77
2021/04/13 04:07:55;;;;;;;7.95;2.33;;;10.90;96.70;;;;;;4989585;28;20469;-76
2021/04/13 04:10:35;;;;;;;5.75;2.10;;;10.90;96.70;;;;;;4964860;28;20038;-77
2021/04/13 04:13:06;;;;;;;5.82;2.08;;;10.90;96.70;;;;;;4973574;28;20054;-76
2021/04/13 04:15:39;;;;;;;6.68;2.08;;;10.90;96.70;;;;;;4999079;28;20038;-77
2021/04/13 04:18:17;;;;;;;5.95;2.10;;;11.00;96.70;;;;;;4995092;28;20132;-76
2021/04/13 04:20:45;;;;;;;5.18;2.03;;;11.10;96.70;;;;;;4982145;28;20678;-76
2021/04/13 04:23:27;;;;;;;7.07;2.15;;;11.10;96.70;;;;;;4974759;28;20038;-76
2021/04/13 04:26:00;;;;;;;7.55;2.08;;;11.10;96.70;;;;;;4996417;28;20149;-76
2021/04/13 04:28:32;;;;;;;6.63;2.17;;;11.10;96.70;;;;;;4966049;28;20050;-77
2021/04/13 04:31:35;;;;;;;6.80;1.95;;;11.10;96.70;;;;;;4964386;28;20125;-76
2021/04/13 04:34:40;;;;;;;9.95;1.92;;;11.00;96.70;;;;;;4938269;28;20429;-76
2021/04/13 04:37:37;;;;;;;6.07;2.25;;;11.10;96.70;;;;;;4966570;28;20054;-76
2021/04/13 04:40:14;;;;;;;7.60;2.20;;;11.10;96.70;;;;;;4965836;28;20042;-76
2021/04/13 04:42:51;;;;;;;4.03;1.70;;;11.20;96.70;;;;;;4965170;28;20050;-76
2021/04/13 04:45:33;;;;;;;6.70;2.58;;;11.20;96.70;;;;;;4978829;28;20061;-77
2021/04/13 04:48:19;;;;;;;8.02;2.13;;;11.20;96.70;;;;;;4990879;28;20070;-76
2021/04/13 04:50:47;;;;;;;4.82;2.50;;;11.30;96.70;;;;;;4979516;28;20050;-76
2021/04/13 04:53:15;;;;;;;8.02;2.25;;;11.30;96.70;;;;;;4976802;28;20555;-77
2021/04/13 04:55:43;;;;;;;5.03;2.15;;;11.20;96.70;;;;;;4976001;28;20528;-76
2021/04/13 04:58:12;;;;;;;8.35;2.75;;;11.30;96.70;;;;;;4959985;28;20046;-76
2021/04/13 05:00:40;;;;;;;6.43;2.53;;;11.30;96.70;;;;;;4974647;28;20046;-76
2021/04/13 05:03:08;;;;;;;5.35;2.08;;;11.30;96.70;;;;;;4983050;28;20046;-78
2021/04/13 05:05:36;;;;;;;5.72;2.28;;;11.30;96.70;;;;;;4983317;28;20048;-78
2021/04/13 05:08:04;;;;;;;9.48;2.53;;;11.20;96.70;;;;;;4968667;28;20042;-78
2021/04/13 05:10:32;;;;;;;7.35;2.90;;;11.20;96.70;;;;;;4991567;28;20119;-78
2021/04/13 05:13:00;;;;;;;6.00;2.25;;;11.20;96.70;;;;;;4982246;28;20437;-78
2021/04/13 05:15:28;;;;;;;2.88;2.05;;;11.20;96.70;;;;;;4991841;28;20038;-78
2021/04/13 05:17:56;;;;;;;6.15;2.53;;;11.30;96.70;;;;;;4973087;28;20424;-78
2021/04/13 05:20:24;;;;;;;4.18;2.00;;;11.30;96.70;;;;;;4998524;28;20155;-78
2021/04/13 05:22:52;;;;;;;4.22;2.22;;;11.20;96.70;;;;;;4993918;28;20496;-78
2021/04/13 05:25:21;;;;;;;6.35;1.80;;;11.20;96.70;;;;;;4981706;28;20035;-78
2021/04/13 05:27:49;;;;;;;4.90;2.00;;;11.00;96.70;;;;;;4998255;28;20034;-78
2021/04/13 05:30:20;;;;;;;4.93;2.20;;;11.10;96.70;;;;;;4996548;28;20042;-78
2021/04/13 05:32:48;;;;;;;3.67;2.15;;;11.20;96.70;;;;;;4989319;28;20533;-77
2021/04/13 05:35:18;;;;;;;6.30;2.70;;;11.20;96.70;;;;;;4992841;28;20568;-78
2021/04/13 05:37:46;;;;;;;5.25;2.13;;;11.20;96.70;;;;;;4985575;28;20194;-77
2021/04/13 05:40:17;;;;;;;6.20;2.17;;;11.20;96.70;;;;;;4965164;28;20050;-78
2021/04/13 05:42:45;;;;;;;4.90;1.95;;;11.20;96.70;;;;;;4966785;28;20081;-78
2021/04/13 05:45:15;;;;;;;4.82;1.90;;;11.30;96.70;;;;;;4956766;28;20209;-78
2021/04/13 05:47:43;;;;;;;6.07;2.22;;;11.20;96.70;;;;;;4973164;28;20058;-82
2021/04/13 05:50:19;;;;;;;7.10;1.88;;;11.10;96.70;;;;;;4960306;28;20038;-77
2021/04/13 05:52:47;;;;;;;5.53;1.88;;;11.20;96.70;;;;;;4957831;28;20125;-77
2021/04/13 05:55:16;;;;;;;3.45;1.80;;;11.20;96.70;;;;;;4974122;28;20069;-76
2021/04/13 05:57:46;;;;;;;4.88;2.03;;;11.20;96.70;;;;;;4974659;28;20050;-77
2021/04/13 06:00:17;;;;;;;4.57;2.05;;;11.10;96.70;;;;;;4942267;28;20050;-78
2021/04/13 06:02:45;;;;;;;4.45;2.03;;;11.10;96.70;;;;;;4958286;28;20039;-78
2021/04/13 06:05:14;;;;;;;4.45;1.67;;;11.10;96.70;;;;;;4959769;28;20074;-79
2021/04/13 06:07:45;;;;;;;6.03;1.90;;;11.10;96.70;;;;;;4953702;28;20346;-79
2021/04/13 06:10:15;;;;;;;4.97;1.67;;;11.20;96.70;;;;;;4964755;28;20397;-78
2021/04/13 06:12:42;;;;;;;6.55;2.15;;;11.20;96.70;;;;;;4950977;28;20322;-78
2021/04/13 06:15:14;;;;;;;4.00;1.90;;;11.30;96.70;;;;;;4956729;28;20219;-78
2021/04/13 06:17:41;;;;;;;11.23;2.67;;;11.40;96.70;;;;;;4977222;28;20508;-78
2021/04/13 06:20:10;;;;;;;6.85;2.70;;;11.50;96.70;;;;;;4975288;28;20055;-78
2021/04/13 06:22:38;;;;;;;6.97;3.30;;;11.60;96.70;;;;;;4958690;28;20047;-78
2021/04/13 06:25:07;;;;;;;6.78;2.70;;;11.70;96.70;;;;;;4960022;28;20048;-78
2021/04/13 06:27:36;;;;;;;9.73;2.85;;;11.70;96.70;;;;;;4956356;28;20042;-79
2021/04/13 06:30:04;;;;;;;7.43;2.40;;;11.90;96.70;;;;;;4949817;28;20126;-78
2021/04/13 06:32:32;;;;;;;6.80;2.70;;;11.90;96.70;;;;;;4969815;28;20247;-78
2021/04/13 06:35:00;;;;;;;5.15;2.05;;;12.00;96.70;;;;;;4973556;28;20085;-77
2021/04/13 06:37:28;;;;;;;5.82;2.03;;;12.00;96.70;;;;;;4939408;28;20100;-78
2021/04/13 06:39:55;;;;;;;5.10;2.38;;;12.00;96.70;;;;;;4982428;28;20142;-78
2021/04/13 06:42:44;;;;;;;6.30;2.30;;;12.00;96.70;;;;;;4973927;28;20046;-78
2021/04/13 06:45:20;;;;;;;6.53;2.00;;;12.00;96.70;;;;;;4983507;28;20116;-78
2021/04/13 06:48:13;;;;;;;6.85;2.40;;;12.10;96.70;;;;;;4984706;28;20144;-78
2021/04/13 06:50:51;;;;;;;7.70;2.20;;;12.10;96.70;;;;;;4988184;28;20853;-78
2021/04/13 06:53:39;;;;;;;4.22;1.88;;;12.00;96.70;;;;;;4991521;28;20046;-79
2021/04/13 06:56:33;;;;;;;8.55;2.25;;;12.00;96.70;;;;;;4974872;28;20078;-77
2021/04/13 06:59:34;;;;;;;6.80;1.77;;;12.10;96.70;;;;;;4972697;28;20050;-77
2021/04/13 07:02:06;;;;;;;5.28;1.40;;;12.20;96.70;;;;;;4996132;28;20478;-78
2021/04/13 07:04:39;;;;;;;6.78;1.60;;;12.20;96.70;;;;;;4978581;28;20064;-78
2021/04/13 07:07:13;;;;;;;4.45;1.20;;;12.30;96.70;;;;;;5000031;28;20654;-78
2021/04/13 07:09:47;;;;;;;6.68;1.40;;;12.30;96.70;;;;;;4968196;28;20060;-78
2021/04/13 07:12:22;;;;;;;3.13;1.17;;;12.10;96.70;;;;;;4972943;28;20141;-78
2021/04/13 07:14:58;;;;;;;1.95;0.95;;;12.20;96.70;;;;;;4982785;28;20092;-77
2021/04/13 07:17:32;;;;;;;2.58;0.90;;;12.20;96.70;;;;;;4968072;28;20627;-78
2021/04/13 07:20:05;;;;;;;2.95;0.70;;;12.10;96.70;;;;;;4980143;28;20041;-77
2021/04/13 07:22:38;;;;;;;2.13;0.90;;;12.10;96.70;;;;;;4981200;28;20051;-79
2021/04/13 07:25:12;;;;;;;3.20;0.68;;;12.20;96.70;;;;;;4962808;28;20038;-78
2021/04/13 07:27:45;;;;;;;2.45;0.90;;;12.20;96.70;;;;;;5000760;28;20042;-78
2021/04/13 07:30:23;;;;;;;1.58;0.50;;;12.30;96.70;;;;;;4980368;28;20109;-78
2021/04/13 07:32:53;;;;;;;1.67;0.40;;;12.30;96.70;;;;;;4972305;28;20038;-78
2021/04/13 07:35:24;;;;;;;0.90;0.40;;;12.40;96.70;;;;;;4982383;28;20405;-78
2021/04/13 07:37:53;;;;;;;3.38;0.60;;;12.40;96.70;;;;;;4974649;28;20475;-77
2021/04/13 07:40:25;;;;;;;1.30;0.45;;;12.20;96.70;;;;;;4994362;28;20057;-78
2021/04/13 07:42:58;;;;;;;1.80;0.43;;;12.20;96.70;;;;;;4997692;28;20400;-79
2021/04/13 07:45:32;;;;;;;1.08;0.30;;;12.00;96.70;;;;;;4978416;28;20054;-78
2021/04/13 07:48:25;;;;;;;0.93;0.40;;;12.00;96.70;;;;;;4975195;28;20591;-78
2021/04/13 07:51:18;;;;;;;1.50;0.60;;;12.00;96.70;;;;;;4950705;28;20048;-78
2021/04/13 07:54:02;;;;;;;0.30;0.30;;;12.20;96.70;;;;;;4979805;28;20073;-78
2021/04/13 07:56:39;;;;;;;0.50;0.20;;;12.20;96.70;;;;;;4996516;28;20070;-79
2021/04/13 07:59:14;;;;;;;0.85;0.25;;;12.20;96.70;;;;;;4983893;28;20045;-77
2021/04/13 08:01:45;;;;;;;2.53;0.30;;;12.20;96.70;;;;;;4977437;28;20046;-77
2021/04/13 08:04:18;;;;;;;0.10;0.10;;;12.20;96.70;;;;;;4966028;28;20099;-77
2021/04/13 08:06:53;;;;;;;0.43;0.20;;;12.30;96.70;;;;;;4980970;28;20573;-79
2021/04/13 08:09:46;;;;;;;0.45;0.20;;;12.40;96.70;;;;;;4976334;28;20050;-77
2021/04/13 08:12:23;;;;;;;0.57;0.20;;;12.40;96.70;;;;;;4992957;28;20060;-77
2021/04/13 08:15:11;;;;;;;0.75;0.20;;;12.50;96.70;;;;;;4973023;28;20038;-77
2021/04/13 08:18:04;;;;;;;0.77;0.25;;;12.40;96.70;;;;;;4983091;28;20475;-78
2021/04/13 08:20:33;;;;;;;0.50;0.20;;;12.50;96.70;;;;;;4992888;28;20061;-77
2021/04/13 08:23:03;;;;;;;1.52;0.20;;;12.50;96.70;;;;;;4980652;28;20190;-78
2021/04/13 08:25:41;;;;;;;0.40;0.20;;;12.50;96.70;;;;;;4978939;28;20046;-78
2021/04/13 08:28:28;;;;;;;0.40;0.22;;;12.60;96.70;;;;;;4977518;28;20461;-78
2021/04/13 08:34:33;;;;;;;0.60;0.10;;;12.80;96.70;;;;;;4979085;28;20043;-78
2021/04/13 08:37:09;;;;;;;0.45;0.13;;;13.00;96.70;;;;;;4951649;28;20065;-78
2021/04/13 08:39:45;;;;;;;1.25;0.38;;;13.00;96.70;;;;;;4992106;28;20053;-78
2021/04/13 08:42:28;;;;;;;0.70;0.40;;;13.00;96.70;;;;;;4980043;28;20072;-78
2021/04/13 08:44:59;;;;;;;0.65;0.28;;;13.10;96.70;;;;;;4987142;28;20046;-78
2021/04/13 08:47:37;;;;;;;0.30;0.20;;;13.00;96.70;;;;;;5000712;28;20594;-78
2021/04/13 08:50:28;;;;;;;1.10;0.20;;;13.00;96.70;;;;;;4982773;28;20472;-78
2021/04/13 08:52:57;;;;;;;1.27;0.13;;;13.20;96.70;;;;;;4986406;28;20419;-78
2021/04/13 08:55:44;;;;;;;0.40;0.20;;;13.20;96.70;;;;;;4987604;28;20046;-78
2021/04/13 08:58:40;;;;;;;0.20;0.15;;;13.20;96.70;;;;;;4995741;28;20052;-77
2021/04/13 09:01:31;;;;;;;0.30;0.15;;;13.20;96.70;;;;;;4979741;28;20054;-77
2021/04/13 09:04:00;;;;;;;0.60;0.20;;;13.10;96.70;;;;;;4979513;28;20451;-77
2021/04/13 09:06:43;;;;;;;0.70;0.20;;;13.20;96.70;;;;;;5001505;28;20061;-77
2021/04/13 09:09:27;;;;;;;0.32;0.20;;;13.20;96.70;;;;;;4982352;28;20133;-77
2021/04/13 09:12:07;;;;;;;0.47;0.20;;;13.20;96.70;;;;;;4996059;28;20040;-77
2021/04/13 09:14:40;;;;;;;0.75;0.20;;;13.10;96.70;;;;;;4981533;28;20069;-78
2021/04/13 09:17:14;;;;;;;1.00;0.20;;;13.00;96.70;;;;;;4999070;28;20124;-78
2021/04/13 09:19:53;;;;;;;0.98;0.30;;;13.00;96.70;;;;;;4984399;28;20629;-78
2021/04/13 09:22:27;;;;;;;0.40;0.30;;;13.00;96.70;;;;;;4993661;28;20045;-78
2021/04/13 09:25:11;;;;;;;0.77;0.30;;;13.00;96.70;;;;;;4972613;28;21122;-78
2021/04/13 09:27:42;;;;;;;1.98;0.57;;;12.90;96.70;;;;;;4994429;28;20794;-78
2021/04/13 09:30:26;;;;;;;0.80;0.20;;;13.00;96.70;;;;;;4982369;28;20048;-78
2021/04/13 09:33:06;;;;;;;0.80;0.35;;;13.10;96.70;;;;;;4982355;28;20112;-78
2021/04/13 09:36:00;;;;;;;1.88;0.40;;;13.10;96.70;;;;;;4995809;28;20869;-78
2021/04/13 09:38:54;;;;;;;2.78;1.80;;;13.00;96.70;;;;;;4989044;28;20053;-78
2021/04/13 09:41:48;;;;;;;1.75;0.57;;;13.10;96.70;;;;;;4991322;28;20400;-78
2021/04/13 09:44:35;;;;;;;1.58;0.60;;;13.20;96.70;;;;;;4980350;28;20470;-78
2021/04/13 09:47:08;;;;;;;0.70;0.45;;;13.20;96.70;;;;;;4990117;28;20066;-78
2021/04/13 09:49:50;;;;;;;0.95;0.43;;;13.30;96.70;;;;;;4982250;28;20524;-78
2021/04/13 09:52:59;;;;;;;0.57;0.30;;;13.30;96.70;;;;;;4977460;28;20036;-78
2021/04/13 09:55:43;;;;;;;0.90;0.20;;;13.50;96.70;;;;;;4984800;28;20883;-79
2021/04/13 09:58:33;;;;;;;1.45;0.30;;;13.60;96.70;;;;;;4983285;28;20416;-77
2021/04/13 10:01:15;;;;;;;0.50;0.30;;;13.80;96.70;;;;;;4990777;28;20038;-78
2021/04/13 10:03:57;;;;;;;0.15;0.13;;;13.90;96.70;;;;;;4993585;28;20042;-79
2021/04/13 10:06:30;;;;;;;0.38;0.22;;;13.90;96.70;;;;;;4977480;28;20054;-79
2021/04/13 10:09:07;;;;;;;1.58;0.20;;;14.20;96.60;;;;;;4991083;28;20111;-79
2021/04/13 10:12:09;;;;;;;0.25;0.15;;;14.30;95.90;;;;;;4983084;28;20054;-78
2021/04/13 10:15:07;;;;;;;0.20;0.10;;;14.40;95.50;;;;;;4938528;28;20508;-79
2021/04/13 10:17:45;;;;;;;;;;;14.50;96.20;;;;;;4979345;28;20155;-80
2021/04/13 10:20:23;;;;;;;0.10;0.10;;;14.60;95.30;;;;;;4991395;28;19929;-79
2021/04/13 10:23:00;;;;;;;0.40;0.20;;;14.70;94.80;;;;;;4951459;28;20049;-78
2021/04/13 10:26:16;;;;;;;0.68;0.10;;;14.80;94.70;;;;;;4980186;28;20046;-78
2021/04/13 10:29:10;;;;;;;0.10;0.00;;;14.90;93.80;;;;;;4976982;28;20496;-78
2021/04/13 10:32:10;;;;;;;0.13;0.00;;;14.90;94.40;;;;;;4982129;28;20054;-78
2021/04/13 10:35:20;;;;;;;1.10;0.10;;;14.90;93.70;;;;;;4969819;28;20086;-78
2021/04/13 10:38:20;;;;;;;0.15;0.00;;;15.10;92.70;;;;;;4995534;28;20054;-78
2021/04/13 10:41:18;;;;;;;1.55;0.00;;;15.40;91.70;;;;;;4976656;28;20053;-78
2021/04/13 10:44:25;;;;;;;0.75;0.10;;;15.50;91.60;;;;;;4978176;28;20399;-78
2021/04/13 10:47:01;;;;;;;0.10;0.10;;;15.50;92.00;;;;;;4977751;28;20154;-78
2021/04/13 10:50:08;;;;;;;0.97;0.20;;;15.90;91.40;;;;;;5001112;28;20146;-78
2021/04/13 10:53:00;;;;;;;0.55;0.10;;;16.00;91.00;;;;;;4982722;28;20383;-78
2021/04/13 10:55:37;;;;;;;0.28;0.10;;;16.00;90.80;;;;;;4999913;28;20138;-78
2021/04/13 10:58:28;;;;;;;0.68;0.10;;;16.10;90.10;;;;;;4981428;28;20045;-78
2021/04/13 11:01:27;;;;;;;1.02;0.20;;;16.20;88.40;;;;;;4972995;28;20073;-78
2021/04/13 11:04:31;;;;;;;0.75;0.10;;;16.50;87.80;;;;;;4984583;28;20069;-78
2021/04/13 11:07:40;;;;;;;0.95;0.20;;;16.40;87.30;;;;;;4999569;28;20050;-78
2021/04/13 11:10:34;;;;;;;0.17;0.05;;;16.30;87.10;;;;;;4951998;28;20132;-77
2021/04/13 11:13:53;;;;;;;0.85;0.00;;;16.40;86.50;;;;;;4948497;28;20045;-77
2021/04/13 11:16:50;;;;;;;0.40;0.05;;;16.40;86.70;;;;;;4875414;28;20392;-79
2021/04/13 11:19:24;;;;;;;0.30;0.10;;;16.40;87.60;;;;;;4954868;28;20062;-78
2021/04/13 11:22:27;;;;;;;1.00;0.20;;;16.10;86.60;;;;;;4997172;28;20149;-78
2021/04/13 11:25:42;;;;;;;1.25;0.80;;;15.90;87.00;;;;;;5000158;28;20049;-79
2021/04/13 11:28:48;;;;;;;0.73;0.20;;;15.90;87.60;;;;;;4998667;28;20124;-78
2021/04/13 11:31:42;;;;;;;0.60;0.30;;;15.90;87.40;;;;;;4985389;28;20543;-78
2021/04/13 11:34:45;;;;;;;0.15;0.05;;;16.20;86.40;;;;;;4970733;28;20128;-78
2021/04/13 11:37:44;;;;;;;0.47;0.00;;;16.30;85.70;;;;;;4981169;28;20404;-77
2021/04/13 11:40:26;;;;;;;1.30;0.35;;;16.40;86.00;;;;;;4973745;28;20062;-79
2021/04/13 11:42:57;;;;;;;0.10;0.10;;;16.40;85.70;;;;;;4958340;28;20108;-78
2021/04/13 11:45:40;;;;;;;0.43;0.10;;;16.40;86.20;;;;;;4947414;28;20526;-77
2021/04/13 11:48:19;;;;;;;0.82;0.03;;;16.30;85.00;;;;;;4973723;28;20046;-78
2021/04/13 11:50:58;;;;;;;0.20;0.10;;;16.30;85.10;;;;;;4982695;28;20042;-77
2021/04/13 11:53:32;;;;;;;0.65;0.10;;;16.00;85.20;;;;;;4961262;28;20042;-76
2021/04/13 11:56:00;;;;;;;0.77;0.35;;;16.00;87.20;;;;;;4972838;28;20161;-78
2021/04/13 11:58:31;;;;;;;0.10;0.10;;;15.90;87.00;;;;;;4965242;28;20639;-79
2021/04/13 12:01:35;;;;;;;0.75;0.00;;;16.10;86.60;;;;;;4961406;28;20574;-79
2021/04/13 12:04:07;;;;;;;0.28;0.00;;;15.90;85.50;;;;;;4963672;28;20125;-78
2021/04/13 12:07:05;;;;;;;0.20;0.10;;;15.80;85.40;;;;;;4951321;28;20042;-78
2021/04/13 12:09:42;;;;;;;0.15;0.10;;;15.90;87.10;;;;;;4918828;28;20508;-80
2021/04/13 12:12:42;;;;;;;0.10;0.00;;;16.10;87.20;;;;;;4948439;28;20063;-78
2021/04/13 12:15:35;;;;;;;0.77;0.10;;;16.40;86.00;;;;;;4980790;28;20306;-78
2021/04/13 12:18:41;;;;;;;1.95;0.00;;;16.60;86.10;;;;;;4958362;28;20128;-79
2021/04/13 12:21:55;;;;;;;0.25;0.00;;;16.80;86.30;;;;;;4964050;28;20136;-78
2021/04/13 12:24:49;;;;;;;1.85;0.00;;;17.10;84.00;;;;;;4965331;28;20462;-79
2021/04/13 12:27:44;;;;;;;0.17;0.10;;;17.20;83.90;;;;;;4957286;28;20415;-79
2021/04/13 12:30:54;;;;;;;0.00;0.00;;;17.20;82.80;;;;;;4978325;28;20136;-79
2021/04/13 12:33:54;;;;;;;0.10;0.00;;;17.10;81.70;;;;;;4963596;28;20066;-79
2021/04/13 12:36:57;;;;;;;0.08;0.03;;;17.00;81.80;;;;;;4976578;28;20152;-79
2021/04/13 12:39:50;;;;;;;1.08;0.00;;;16.70;81.60;;;;;;4960647;28;20059;-78
2021/04/13 12:42:48;;;;;;;0.10;0.08;;;16.70;82.00;;;;;;4952327;28;20043;-78
2021/04/13 12:45:26;;;;;;;0.10;0.00;;;16.80;82.70;;;;;;4967263;28;20042;-78
2021/04/13 12:47:57;;;;;;;0.43;0.10;;;16.90;82.40;;;;;;4957968;28;20053;-79
2021/04/13 12:50:28;;;;;;;0.05;0.00;;;17.00;82.40;;;;;;4953379;28;20073;-78
2021/04/13 12:52:56;;;;;;;1.55;0.15;;;17.00;82.20;;;;;;4974069;28;20038;-78
2021/04/13 12:55:24;;;;;;;0.00;0.00;;;16.90;83.20;;;;;;4948303;28;20038;-79
2021/04/13 12:57:55;;;;;;;0.00;0.00;;;16.80;81.70;;;;;;4970383;28;20137;-78
2021/04/13 13:00:31;;;;;;;0.28;0.10;;;16.90;81.60;;;;;;4957627;28;20057;-79
2021/04/13 13:03:16;;;;;;;0.50;0.00;;;17.10;81.80;;;;;;4969011;28;20043;-79
2021/04/13 13:05:45;;;;;;;0.00;0.00;;;17.40;81.90;;;;;;4958843;28;20035;-79
2021/04/13 13:08:18;;;;;;;0.10;0.00;;;17.40;81.00;;;;;;4947494;28;20346;-79
2021/04/13 13:10:49;;;;;;;0.40;0.10;;;17.30;81.40;;;;;;4968854;28;20042;-78
2021/04/13 13:13:25;;;;;;;0.05;0.03;;;17.20;82.40;;;;;;4955181;28;20039;-79
2021/04/13 13:15:53;;;;;;;1.45;0.08;;;17.20;82.30;;;;;;4976850;28;20066;-79
2021/04/13 13:18:25;;;;;;;0.00;0.00;;;17.30;83.10;;;;;;4956536;28;20034;-78
2021/04/13 13:20:58;;;;;;;2.30;0.13;;;17.50;82.30;;;;;;4951469;28;20058;-79
2021/04/13 13:23:29;;;;;;;0.85;0.10;;;17.80;80.50;;;;;;4976821;28;21050;-79
2021/04/13 13:26:08;;;;;;;0.82;0.00;;;18.20;81.40;;;;;;4977650;28;20366;-79
2021/04/13 13:28:45;;;;;;;0.20;0.00;;;18.00;79.50;;;;;;4973837;28;20428;-78
2021/04/13 13:31:16;;;;;;;0.00;0.00;;;17.70;79.10;;;;;;4965185;28;20056;-79
2021/04/13 13:33:45;;;;;;;0.52;0.08;;;17.60;78.80;;;;;;4965145;28;20133;-77
2021/04/13 13:36:15;;;;;;;0.73;0.03;;;17.70;79.50;;;;;;4955743;28;20039;-77
2021/04/13 13:38:45;;;;;;;1.83;0.10;;;17.90;79.10;;;;;;4976313;28;20156;-77
2021/04/13 13:41:16;;;;;;;0.28;0.10;;;17.70;78.30;;;;;;4977228;28;20046;-77
2021/04/13 13:43:44;;;;;;;0.40;0.00;;;17.40;79.10;;;;;;4995937;28;21308;-78
2021/04/13 13:46:34;;;;;;;0.45;0.13;;;17.40;79.70;;;;;;4969981;28;20172;-76
2021/04/13 13:49:27;;;;;;;0.73;0.10;;;17.30;79.40;;;;;;4983171;28;20065;-76
2021/04/13 13:52:00;;;;;;;0.65;0.20;;;16.90;80.20;;;;;;4969246;28;20038;-76